Pays
Station

 

Conditions  météo  pour  Lewistown Municipal  -  Etats-Unis    Etats-Unis

  
12 °C
    
 
 

METAR pour Lewistown Municipal :

KLWT 251454Z AUTO 28003KT 10SM CLR 12/03 A3009 RMK AO2 SLP176 T01220028 56002

 

Voici le bulletin pour Lewistown Municipal - Etats-Unis.
 
Le bulletin a été fait il y a 11 minutes, à 14:54 UTC .
Le vent soufflait à la vitesse de 1.5 mètres par seconde de Ouest (280°).
 
La température était de 12 °C, avec un point de rosée à 3 °C.
La pression atmosphérique était de 1019 hPa.
L'humidité relative était de 54.0%.
 
Le ciel était clair.
 
La visibilité globale était de 16.1 kilomètres.
 

 
 
 

Pays :   A   B   C   D   E   F   G   H   I   J   K   L   M   N   O   P   Q   R   S   T   U   V   W   Y   Z

 

Partenaires :  Info Météo avec Met'info
Météo Marine avec MeteoMarine.net
Infos Site  |  Infos Légales  |  Crédits  |  Confidentialité
Contactez-nous  |  Ajouter aux favoris
© 2013-2020 METAR - Tous droits réservés